Gladys S — WDB9526 — position and weather

sailwx.info

Track history (hours):
 
Tides and Currents Weather Stations Pressure Air Temp Water Temp Dewpoint Dewpoint Depression Visibility Wind Speed Wind Dir Waves Ship Positions

Gladys S

Owner: AMERICAN WORKBOATS, TERMINAL ISLAND, CA. More information available from US FCC via Universal Licensing System and Coast Guard Vessel Documentation Center.

Last reported at 2017-Sep-25 10:19 UTC. Time now 2017-Sep-25 15:12 UTC.
Position N 33°44' W 118°16'.

; draft 6.9 m.

Type: . MMSI: 366977850.

Date/timePositionNaut miles runAvg speedWind from/ knotsBaromVisibWave heightAir tempDewpointWater temp
2017-Sep-25 10:19N 33°44' W 118°16'0 0.2
2017-Sep-25 10:00N 33°44' W 118°16'3 6.5
2017-Sep-25 09:30N 33°42' W 118°18'714.4
2017-Sep-25 09:00N 33°45' W 118°26'3 1.3
2017-Sep-25 06:43N 33°48' W 118°27'1 6.1
2017-Sep-25 06:30N 33°46' W 118°27'612.5
2017-Sep-25 06:00N 33°42' W 118°22'611.0
2017-Sep-25 05:30N 33°42' W 118°15'  
2017-Sep-19 16:33N 33°44' W 118°16'0 1.5
2017-Sep-19 16:24N 33°44' W 118°16'511.7
2017-Sep-19 15:57N 33°41' W 118°10'1 1.1
2017-Sep-19 15:28N 33°41' W 118°10'611.1
2017-Sep-19 14:56N 33°44' W 118°16'0 0.1
2017-Sep-19 14:02N 33°44' W 118°16'0 0.0
2017-Sep-19 13:58N 33°44' W 118°16'0 0.0
2017-Sep-19 13:30N 33°44' W 118°16'1413.0
2017-Sep-19 12:24N 33°32' W 118°08'616.0
2017-Sep-19 12:00N 33°26' W 118°05'815.8
2017-Sep-19 11:30N 33°18' W 118°02'714.8
2017-Sep-19 11:01N 33°11' W 117°59'1 2.1
2017-Sep-19 10:31N 33°10' W 117°60'510.7
2017-Sep-19 10:00N 33°14' W 118°05'3016.6
2017-Sep-19 08:12N 33°42' W 118°15'2 0.1
2017-Sep-18 07:44N 33°44' W 118°16'0 0.0
2017-Sep-18 07:26N 33°44' W 118°16'410.5
2017-Sep-18 07:00N 33°44' W 118°10'0 0.1
2017-Sep-18 06:28N 33°44' W 118°10'0 0.1
2017-Sep-18 05:55N 33°44' W 118°10'0 0.1
2017-Sep-18 05:28N 33°44' W 118°10'4 7.9
2017-Sep-18 05:00N 33°43' W 118°15'2 3.1
2017-Sep-18 04:28N 33°42' W 118°13'4 8.1
2017-Sep-18 04:00N 33°40' W 118°09'1 2.1
2017-Sep-18 03:25N 33°40' W 118°08'615.3
2017-Sep-18 03:00N 33°42' W 118°15'2 4.3
2017-Sep-18 02:27N 33°44' W 118°16'0 0.0
2017-Sep-18 01:50N 33°44' W 118°16'0 0.0
2017-Sep-18 01:30N 33°44' W 118°16'0 0.0
2017-Sep-18 01:00N 33°44' W 118°16'0 0.0
2017-Sep-18 00:23N 33°44' W 118°16'0 0.0
2017-Sep-18 00:00N 33°44' W 118°16'0 0.0
2017-Sep-16 01:01N 33°44' W 118°16'0 0.4
2017-Sep-16 01:00N 33°44' W 118°16'4 8.2
2017-Sep-16 00:30N 33°45' W 118°11'1 1.2
2017-Sep-16 00:00N 33°46' W 118°12'714.8
2017-Sep-15 23:30N 33°39' W 118°09'817.0
2017-Sep-15 23:00N 33°31' W 118°05'917.4
2017-Sep-15 22:30N 33°23' W 118°01'917.7
2017-Sep-15 22:00N 33°14' W 117°60'3 5.5
2017-Sep-15 21:30N 33°11' W 117°59'612.3
2017-Sep-15 21:00N 33°17' W 118°00'917.7
2017-Sep-15 20:30N 33°26' W 118°03'1018.7
2017-Sep-15 19:57N 33°35' W 118°09'818.3
2017-Sep-15 19:30N 33°42' W 118°14'  
Track history (hours):
 
Tides and Currents Weather Stations Pressure Air Temp Water Temp Dewpoint Dewpoint Depression Visibility Wind Speed Wind Dir Waves Ship Positions

Gladys S

Owner: AMERICAN WORKBOATS, TERMINAL ISLAND, CA. More information available from US FCC via Universal Licensing System and Coast Guard Vessel Documentation Center.

Last reported at 2017-Sep-25 10:19 UTC. Time now 2017-Sep-25 15:12 UTC.
Position N 33°44' W 118°16'.

; draft 6.9 m.

Type: . MMSI: 366977850.

Date/timePositionNaut miles runAvg speedWind from/ knotsBaromVisibWave heightAir tempDewpointWater temp
2017-Sep-25 10:19N 33°44' W 118°16'0 0.2
2017-Sep-25 10:00N 33°44' W 118°16'3 6.5
2017-Sep-25 09:30N 33°42' W 118°18'714.4
2017-Sep-25 09:00N 33°45' W 118°26'3 1.3
2017-Sep-25 06:43N 33°48' W 118°27'1 6.1
2017-Sep-25 06:30N 33°46' W 118°27'612.5
2017-Sep-25 06:00N 33°42' W 118°22'611.0
2017-Sep-25 05:30N 33°42' W 118°15'  
2017-Sep-19 16:33N 33°44' W 118°16'0 1.5
2017-Sep-19 16:24N 33°44' W 118°16'511.7
2017-Sep-19 15:57N 33°41' W 118°10'1 1.1
2017-Sep-19 15:28N 33°41' W 118°10'611.1
2017-Sep-19 14:56N 33°44' W 118°16'0 0.1
2017-Sep-19 14:02N 33°44' W 118°16'0 0.0
2017-Sep-19 13:58N 33°44' W 118°16'0 0.0
2017-Sep-19 13:30N 33°44' W 118°16'1413.0
2017-Sep-19 12:24N 33°32' W 118°08'616.0
2017-Sep-19 12:00N 33°26' W 118°05'815.8
2017-Sep-19 11:30N 33°18' W 118°02'714.8
2017-Sep-19 11:01N 33°11' W 117°59'1 2.1
2017-Sep-19 10:31N 33°10' W 117°60'510.7
2017-Sep-19 10:00N 33°14' W 118°05'3016.6
2017-Sep-19 08:12N 33°42' W 118°15'2 0.1
2017-Sep-18 07:44N 33°44' W 118°16'0 0.0
2017-Sep-18 07:26N 33°44' W 118°16'410.5
2017-Sep-18 07:00N 33°44' W 118°10'0 0.1
2017-Sep-18 06:28N 33°44' W 118°10'0 0.1
2017-Sep-18 05:55N 33°44' W 118°10'0 0.1
2017-Sep-18 05:28N 33°44' W 118°10'4 7.9
2017-Sep-18 05:00N 33°43' W 118°15'2 3.1
2017-Sep-18 04:28N 33°42' W 118°13'4 8.1
2017-Sep-18 04:00N 33°40' W 118°09'1 2.1
2017-Sep-18 03:25N 33°40' W 118°08'615.3
2017-Sep-18 03:00N 33°42' W 118°15'2 4.3
2017-Sep-18 02:27N 33°44' W 118°16'0 0.0
2017-Sep-18 01:50N 33°44' W 118°16'0 0.0
2017-Sep-18 01:30N 33°44' W 118°16'0 0.0
2017-Sep-18 01:00N 33°44' W 118°16'0 0.0
2017-Sep-18 00:23N 33°44' W 118°16'0 0.0
2017-Sep-18 00:00N 33°44' W 118°16'0 0.0
2017-Sep-16 01:01N 33°44' W 118°16'0 0.4
2017-Sep-16 01:00N 33°44' W 118°16'4 8.2
2017-Sep-16 00:30N 33°45' W 118°11'1 1.2
2017-Sep-16 00:00N 33°46' W 118°12'714.8
2017-Sep-15 23:30N 33°39' W 118°09'817.0
2017-Sep-15 23:00N 33°31' W 118°05'917.4
2017-Sep-15 22:30N 33°23' W 118°01'917.7
2017-Sep-15 22:00N 33°14' W 117°60'3 5.5
2017-Sep-15 21:30N 33°11' W 117°59'612.3
2017-Sep-15 21:00N 33°17' W 118°00'917.7
2017-Sep-15 20:30N 33°26' W 118°03'1018.7
2017-Sep-15 19:57N 33°35' W 118°09'818.3
2017-Sep-15 19:30N 33°42' W 118°14'  

Dump ship's entire track history